Time;durP1;ratioP1;P1;durP2;ratioP2;P2;SDS_P1;SDS_P2;PMS_P1;PMS_P2;Temp;Humidity;BMP_temperature;BMP_pressure;BME280_temperature;BME280_humidity;BME280_pressure;Samples;Min_cycle;Max_cycle;Signal;HPM_P1;HPM_P2
2022/06/10 00:00:44;;;;;;;2.55;1.33;;;;;;;14.19;68.75;93229.16;2048498;70;20182;-71
2022/06/10 00:03:12;;;;;;;2.45;1.17;;;;;;;14.26;67.74;93238.03;2048538;69;20156;-73
2022/06/10 00:05:38;;;;;;;5.68;1.30;;;;;;;14.23;68.21;93240.72;2048452;70;20146;-72
2022/06/10 00:08:07;;;;;;;2.85;1.50;;;;;;;14.16;68.25;93236.09;2048514;70;20178;-71
2022/06/10 00:10:33;;;;;;;4.63;1.30;;;;;;;14.29;66.85;93237.47;2048521;70;20131;-71
2022/06/10 00:12:58;;;;;;;2.08;1.30;;;;;;;14.29;67.25;93236.75;2048515;70;20138;-71
2022/06/10 00:15:24;;;;;;;2.30;1.42;;;;;;;14.30;66.86;93241.81;2048279;70;20157;-72
2022/06/10 00:17:50;;;;;;;2.05;1.33;;;;;;;14.29;67.37;93239.59;2048358;70;20580;-73
2022/06/10 00:20:18;;;;;;;4.88;1.27;;;;;;;14.20;68.14;93239.16;2048541;70;20580;-72
2022/06/10 00:22:44;;;;;;;2.90;1.30;;;;;;;14.22;67.56;93250.59;2048476;70;20693;-72
2022/06/10 00:25:10;;;;;;;4.80;1.30;;;;;;;14.29;67.30;93248.09;2048309;70;20151;-72
2022/06/10 00:27:36;;;;;;;2.72;1.63;;;;;;;14.30;66.45;93253.13;2061374;69;20137;-72
2022/06/10 00:30:03;;;;;;;2.20;1.17;;;;;;;14.31;66.84;93262.38;2061197;69;20182;-70
2022/06/10 00:32:29;;;;;;;3.63;1.58;;;;;;;14.27;67.90;93265.72;2048400;70;20155;-71
2022/06/10 00:34:54;;;;;;;2.85;1.25;;;;;;;14.36;66.40;93261.22;2048264;70;20143;-70
2022/06/10 00:37:20;;;;;;;3.75;1.35;;;;;;;14.27;66.04;93262.13;2048494;70;20539;-73
2022/06/10 00:39:46;;;;;;;3.00;1.33;;;;;;;14.28;67.07;93269.28;2048890;69;20236;-72
2022/06/10 00:42:12;;;;;;;4.28;1.50;;;;;;;14.23;66.12;93268.31;2049168;70;20238;-72
2022/06/10 00:44:47;;;;;;;5.97;2.05;;;;;;;14.03;69.25;93267.16;2048803;69;20170;-71
2022/06/10 00:47:19;;;;;;;3.20;1.42;;;;;;;14.13;68.94;93268.47;2048753;70;20150;-71
2022/06/10 00:50:24;;;;;;;5.57;1.60;;;;;;;14.15;68.65;93267.84;2049035;70;20162;-71
2022/06/10 00:53:01;;;;;;;5.78;1.63;;;;;;;14.16;68.36;93270.06;2048313;69;20174;-71
2022/06/10 00:55:29;;;;;;;4.38;1.90;;;;;;;14.08;70.56;93260.38;2048805;70;20143;-74
2022/06/10 00:58:12;;;;;;;6.55;1.48;;;;;;;14.09;70.40;93265.41;2048696;70;20170;-74
2022/06/10 01:00:38;;;;;;;;;;;;;;;13.93;70.61;93259.56;2048622;70;20524;-74
2022/06/10 01:03:05;;;;;;;3.88;1.42;;;;;;;14.02;69.64;93254.34;2048691;70;20539;-71
2022/06/10 01:05:31;;;;;;;3.47;1.27;;;;;;;14.05;69.12;93256.69;2048701;70;20162;-70
2022/06/10 01:08:08;;;;;;;3.63;1.40;;;;;;;14.12;67.35;93254.94;2048804;70;20150;-71
2022/06/10 01:11:15;;;;;;;3.30;1.40;;;;;;;14.08;68.22;93258.28;2048883;70;20154;-71
2022/06/10 01:14:08;;;;;;;4.50;1.80;;;;;;;13.98;69.63;93255.63;2048563;69;20665;-74
2022/06/10 01:16:50;;;;;;;4.22;1.55;;;;;;;13.96;68.49;93269.63;2048485;70;20543;-72
2022/06/10 01:20:00;;;;;;;4.43;1.48;;;;;;;13.98;69.15;93266.94;2048974;69;20154;-74
2022/06/10 01:22:47;;;;;;;5.65;1.40;;;;;;;13.88;70.56;93279.75;2047195;69;20174;-72
2022/06/10 01:25:42;;;;;;;4.80;1.50;;;;;;;13.83;71.20;93273.13;2048829;70;20604;-72
2022/06/10 01:28:17;;;;;;;5.70;1.40;;;;;;;13.88;69.86;93279.75;2045600;70;20147;-72
2022/06/10 01:31:10;;;;;;;3.65;1.30;;;;;;;13.86;70.98;93280.38;2045573;70;20158;-72
2022/06/10 01:33:43;;;;;;;4.90;1.40;;;;;;;13.69;71.40;93289.28;2045614;70;20230;-74
2022/06/10 01:36:37;;;;;;;1.83;1.30;;;;;;;13.77;69.90;93280.53;2045558;70;20234;-72
2022/06/10 01:39:14;;;;;;;3.05;1.50;;;;;;;13.75;70.97;93288.91;2045695;70;20318;-72
2022/06/10 01:41:56;;;;;;;2.33;1.40;;;;;;;13.78;71.07;93298.97;2045640;70;20238;-72
2022/06/10 01:44:36;;;;;;;2.13;1.30;;;;;;;13.82;70.26;93288.63;2045474;70;20221;-71
2022/06/10 01:47:15;;;;;;;3.92;1.55;;;;;;;13.71;71.81;93292.97;2045634;70;20623;-73
2022/06/10 01:49:46;;;;;;;1.75;1.33;;;;;;;13.75;70.93;93289.66;2045325;69;20147;-72
2022/06/10 01:52:20;;;;;;;5.85;1.50;;;;;;;13.73;70.40;93290.25;2045581;70;20230;-73
2022/06/10 01:55:05;;;;;;;2.13;1.40;;;;;;;13.71;71.42;93290.16;2045478;70;20154;-74
2022/06/10 01:57:31;;;;;;;2.22;1.40;;;;;;;13.70;71.40;93282.28;2045449;70;20208;-72
2022/06/10 02:00:07;;;;;;;3.25;1.40;;;;;;;13.74;71.08;93288.16;2045196;70;20159;-73
2022/06/10 02:02:37;;;;;;;5.25;1.58;;;;;;;13.68;70.64;93287.81;2045381;70;20235;-72
2022/06/10 02:05:13;;;;;;;4.28;1.50;;;;;;;13.76;70.62;93293.22;2045809;70;20135;-74
2022/06/10 02:07:47;;;;;;;6.30;1.52;;;;;;;13.63;71.48;93288.94;2045637;70;20182;-72
2022/06/10 02:10:18;;;;;;;2.10;1.63;;;;;;;13.47;73.42;93291.53;2039618;70;20253;-71
2022/06/10 02:12:49;;;;;;;7.97;1.50;;;;;;;13.66;71.59;93294.09;2045568;70;20170;-72
2022/06/10 02:15:20;;;;;;;5.05;1.83;;;;;;;13.57;72.31;93305.53;2045221;70;20634;-71
2022/06/10 02:17:57;;;;;;;3.15;1.40;;;;;;;13.59;71.24;93297.16;2045623;70;20237;-71
2022/06/10 02:20:27;;;;;;;4.10;1.30;;;;;;;13.66;70.94;93299.75;2045667;70;20209;-71
2022/06/10 02:22:55;;;;;;;3.70;1.50;;;;;;;13.65;71.58;93298.28;2042535;70;20577;-72
2022/06/10 02:25:33;;;;;;;3.10;1.60;;;;;;;13.63;72.11;93308.72;2048343;70;20174;-72
2022/06/10 02:28:03;;;;;;;3.10;1.60;;;;;;;13.69;70.24;93306.25;2048302;70;20167;-71
2022/06/10 02:30:34;;;;;;;5.82;1.80;;;;;;;13.61;71.96;93300.88;2048261;70;20161;-71
2022/06/10 02:33:04;;;;;;;4.07;1.50;;;;;;;13.63;72.06;93314.38;2048555;70;20183;-71
2022/06/10 02:35:43;;;;;;;4.57;1.65;;;;;;;13.60;71.94;93307.13;2048514;70;20166;-72
2022/06/10 02:38:37;;;;;;;3.80;1.67;;;;;;;13.64;72.18;93316.59;2048564;70;20157;-72
2022/06/10 02:41:15;;;;;;;5.68;1.50;;;;;;;13.63;71.79;93317.22;2048457;70;20236;-71
2022/06/10 02:43:57;;;;;;;3.65;1.50;;;;;;;13.53;72.82;93317.34;2048330;70;20150;-72
2022/06/10 02:46:30;;;;;;;3.25;1.40;;;;;;;13.54;72.94;93318.81;2048376;70;20149;-71
2022/06/10 02:49:15;;;;;;;4.53;1.90;;;;;;;13.54;72.54;93323.75;2048617;70;20151;-71
2022/06/10 02:51:41;;;;;;;2.65;1.52;;;;;;;13.62;70.84;93319.31;2048434;70;20147;-72
2022/06/10 02:54:12;;;;;;;3.95;1.70;;;;;;;13.69;70.80;93328.88;2048353;70;20241;-72
2022/06/10 02:56:38;;;;;;;2.83;1.70;;;;;;;13.65;72.65;93337.13;2061697;69;20580;-72
2022/06/10 03:02:07;;;;;;;4.40;1.80;;;;;;;13.60;72.43;93338.25;2048543;70;20147;-72
2022/06/10 03:05:04;;;;;;;2.35;1.67;;;;;;;13.57;72.22;93333.84;2048624;70;20248;-72
2022/06/10 03:08:02;;;;;;;3.00;1.77;;;;;;;13.57;71.72;93326.09;2048607;69;20153;-73
2022/06/10 03:10:59;;;;;;;4.57;2.30;;;;;;;13.26;74.05;93332.00;2048728;70;20150;-74
2022/06/10 03:13:42;;;;;;;2.55;2.05;;;;;;;13.47;73.45;93326.22;2048635;70;20174;-74
2022/06/10 03:16:45;;;;;;;9.32;2.30;;;;;;;13.58;72.67;93335.31;2048482;70;20150;-71
2022/06/10 03:19:51;;;;;;;2.67;1.90;;;;;;;13.59;72.99;93331.84;2048684;69;20146;-71
2022/06/10 03:22:28;;;;;;;5.38;1.88;;;;;;;13.57;73.94;93333.84;2048726;70;20181;-71
2022/06/10 03:24:58;;;;;;;5.68;1.90;;;;;;;13.57;73.04;93322.53;2048685;70;20631;-72
2022/06/10 03:27:41;;;;;;;5.00;2.08;;;;;;;13.52;72.99;93341.34;2048791;70;20169;-72
2022/06/10 03:30:15;;;;;;;2.65;1.70;;;;;;;13.54;71.82;93335.78;2048713;70;20143;-71
2022/06/10 03:32:44;;;;;;;4.53;2.00;;;;;;;13.60;71.88;93335.41;2048904;70;20153;-71
2022/06/10 03:35:23;;;;;;;3.17;1.90;;;;;;;13.57;73.43;93333.84;2048713;70;20212;-71
2022/06/10 03:37:50;;;;;;;5.55;2.00;;;;;;;13.54;72.92;93329.41;2048719;70;20142;-71
2022/06/10 03:40:27;;;;;;;4.25;1.90;;;;;;;13.52;73.74;93343.44;2048753;70;20544;-71
2022/06/10 03:42:56;;;;;;;2.25;1.60;;;;;;;13.54;72.65;93347.09;2048847;70;20139;-71
2022/06/10 03:45:26;;;;;;;5.60;1.80;;;;;;;13.60;72.72;93341.81;2048657;70;20135;-72
2022/06/10 03:47:52;;;;;;;4.20;1.60;;;;;;;13.54;73.41;93352.75;2061751;69;20141;-72
2022/06/10 03:50:26;;;;;;;8.57;3.80;;;;;;;13.31;74.79;93352.78;2048755;70;20142;-72
2022/06/10 03:52:52;;;;;;;8.13;4.35;;;;;;;13.31;75.61;93353.50;2048717;70;20153;-72
2022/06/10 03:55:20;;;;;;;6.68;3.50;;;;;;;13.56;72.67;93354.97;2048654;70;20146;-74
2022/06/10 03:57:47;;;;;;;4.38;2.80;;;;;;;13.53;73.75;93362.63;2048703;70;20246;-75
2022/06/10 04:00:24;;;;;;;6.40;3.08;;;;;;;13.62;71.30;93364.56;2048831;70;20158;-73
2022/06/10 04:02:50;;;;;;;3.55;2.90;;;;;;;13.59;72.91;93359.41;2048651;69;20157;-72
2022/06/10 04:05:16;;;;;;;10.52;3.10;;;;;;;13.59;73.41;93367.91;2048668;70;20134;-72
2022/06/10 04:07:42;;;;;;;4.68;3.17;;;;;;;13.56;73.89;93364.22;2048636;70;20214;-74
2022/06/10 04:10:12;;;;;;;4.60;2.83;;;;;;;13.61;72.79;93368.75;2048654;70;20257;-75
2022/06/10 04:12:38;;;;;;;6.15;2.70;;;;;;;13.61;72.75;93376.53;2049056;70;20201;-73
2022/06/10 04:15:05;;;;;;;4.88;3.15;;;;;;;13.62;73.68;93367.41;2049121;70;20155;-72
2022/06/10 04:17:31;;;;;;;8.10;2.50;;;;;;;13.66;72.70;93369.75;2049109;70;20609;-72
2022/06/10 04:19:58;;;;;;;4.60;2.78;;;;;;;13.55;72.94;93376.13;2049303;70;20150;-72
2022/06/10 04:22:24;;;;;;;5.65;2.72;;;;;;;13.26;74.81;93379.31;2062060;69;20154;-72
2022/06/10 04:24:49;;;;;;;7.18;3.33;;;;;;;13.39;74.16;93382.28;2049229;70;20147;-72
2022/06/10 04:27:15;;;;;;;4.53;3.20;;;;;;;13.34;73.93;93374.91;2049143;70;20157;-72
2022/06/10 04:29:41;;;;;;;4.20;2.72;;;;;;;13.26;75.37;93374.41;2049029;70;20162;-72
2022/06/10 04:32:07;;;;;;;4.63;2.90;;;;;;;13.39;74.05;93382.28;2049261;70;20536;-72
2022/06/10 04:34:33;;;;;;;4.53;2.90;;;;;;;13.55;74.19;93388.19;2049124;70;20241;-73
2022/06/10 04:36:59;;;;;;;6.10;3.40;;;;;;;13.21;77.08;93387.53;2049113;70;20184;-74
2022/06/10 04:39:24;;;;;;;6.45;3.50;;;;;;;13.10;76.58;93393.91;2049207;70;20275;-74
2022/06/10 04:41:50;;;;;;;6.60;3.40;;;;;;;13.42;75.30;93385.97;2062036;69;20220;-75
2022/06/10 04:44:15;;;;;;;5.18;2.97;;;;;;;13.59;73.18;93388.44;2049136;70;20214;-72
2022/06/10 04:46:43;;;;;;;6.03;3.20;;;;;;;13.62;73.59;93389.31;2048797;69;20139;-70
2022/06/10 04:49:09;;;;;;;4.20;3.10;;;;;;;13.66;71.29;93400.88;2049046;70;20154;-72
2022/06/10 04:51:36;;;;;;;7.65;3.63;;;;;;;13.69;72.54;93402.44;2049067;70;20170;-72
2022/06/10 04:54:03;;;;;;;4.28;3.67;;;;;;;13.60;72.89;93395.56;2049060;70;20588;-71
2022/06/10 04:56:29;;;;;;;5.40;3.63;;;;;;;13.65;72.32;93399.38;2049015;70;20138;-71
2022/06/10 04:58:54;;;;;;;6.00;3.17;;;;;;;13.72;69.63;93401.22;2049075;70;20605;-71
2022/06/10 05:01:20;;;;;;;6.57;3.58;;;;;;;13.78;71.77;93401.59;2048932;70;20174;-71
2022/06/10 05:03:45;;;;;;;6.18;4.05;;;;;;;13.48;74.39;93401.22;2049204;70;20186;-71
2022/06/10 05:06:11;;;;;;;4.13;2.80;;;;;;;13.60;73.74;93400.47;2049200;70;20556;-73
2022/06/10 05:08:37;;;;;;;4.50;2.85;;;;;;;13.75;72.77;93408.50;2049070;70;20175;-74
2022/06/10 05:11:02;;;;;;;4.63;3.17;;;;;;;13.41;75.12;93402.19;2048883;70;20153;-72
2022/06/10 05:13:28;;;;;;;7.28;3.78;;;;;;;13.36;75.29;93405.41;2049003;70;20153;-72
2022/06/10 05:15:54;;;;;;;5.72;2.92;;;;;;;13.50;75.86;93405.53;2048876;70;20628;-71
2022/06/10 05:18:22;;;;;;;4.10;2.70;;;;;;;13.75;74.48;93407.75;2049079;69;20685;-71
2022/06/10 05:20:48;;;;;;;6.25;3.30;;;;;;;13.89;71.67;93403.69;2049046;70;20234;-71
2022/06/10 05:23:17;;;;;;;5.45;3.15;;;;;;;13.68;75.15;93398.16;2048837;70;20162;-71
2022/06/10 05:25:43;;;;;;;4.63;3.10;;;;;;;13.81;73.06;93405.28;2049124;70;20185;-71
2022/06/10 05:28:10;;;;;;;6.50;3.63;;;;;;;13.57;74.93;93404.56;2049126;70;20234;-71
2022/06/10 05:30:36;;;;;;;8.90;3.47;;;;;;;13.49;75.54;93410.44;2048918;70;20190;-71
2022/06/10 05:33:04;;;;;;;3.55;3.00;;;;;;;13.54;76.04;93403.69;2049134;70;20149;-71
2022/06/10 05:35:30;;;;;;;4.88;2.85;;;;;;;13.82;73.20;93403.94;2049088;70;20147;-71
2022/06/10 05:37:56;;;;;;;8.45;3.05;;;;;;;13.98;72.93;93416.97;2049009;70;20161;-71
2022/06/10 05:40:24;;;;;;;7.65;2.72;;;;;;;14.04;72.23;93421.50;2049108;70;20161;-72
2022/06/10 05:42:50;;;;;;;3.75;2.88;;;;;;;13.66;74.30;93415.00;2049002;70;20222;-72
2022/06/10 05:45:17;;;;;;;6.10;2.90;;;;;;;13.66;74.66;93421.41;2048882;70;20237;-72
2022/06/10 05:47:45;;;;;;;6.18;3.72;;;;;;;13.15;76.93;93423.16;2048969;70;20150;-71
2022/06/10 05:50:21;;;;;;;5.78;3.10;;;;;;;13.47;75.56;93425.22;2061956;69;20138;-71
2022/06/10 05:52:50;;;;;;;4.47;2.92;;;;;;;13.61;75.17;93430.28;2049010;70;20155;-72
2022/06/10 05:55:16;;;;;;;5.00;3.13;;;;;;;13.77;74.70;93434.06;2048827;70;20216;-72
2022/06/10 05:57:42;;;;;;;4.13;2.83;;;;;;;13.82;74.19;93435.78;2061806;69;20181;-72
2022/06/10 06:00:16;;;;;;;5.47;2.95;;;;;;;14.00;73.49;93436.16;2048867;70;20162;-72
2022/06/10 06:02:42;;;;;;;3.80;2.92;;;;;;;13.99;73.67;93435.41;2048918;70;20141;-73
2022/06/10 06:05:10;;;;;;;3.17;2.80;;;;;;;14.08;72.94;93438.75;2048959;69;20518;-72
2022/06/10 06:07:37;;;;;;;8.27;3.17;;;;;;;14.21;69.53;93443.78;2048910;70;20153;-72
2022/06/10 06:10:03;;;;;;;5.80;2.90;;;;;;;14.16;70.72;93444.88;2061824;69;20154;-72
2022/06/10 06:12:28;;;;;;;4.95;2.90;;;;;;;14.06;71.23;93445.00;2048896;70;20183;-73
2022/06/10 06:14:54;;;;;;;5.25;2.95;;;;;;;14.14;71.41;93447.59;2048805;70;20178;-72
2022/06/10 06:17:21;;;;;;;6.35;3.10;;;;;;;14.31;69.92;93457.78;2048720;70;20146;-72
2022/06/10 06:19:47;;;;;;;7.10;3.05;;;;;;;14.16;73.21;93450.56;2048719;70;20197;-71
2022/06/10 06:22:13;;;;;;;5.47;3.63;;;;;;;14.05;74.25;93449.19;2048815;70;20150;-71
2022/06/10 06:24:39;;;;;;;5.88;4.10;;;;;;;13.60;77.26;93446.47;2048916;70;20158;-71
2022/06/10 06:27:06;;;;;;;4.22;3.00;;;;;;;14.19;73.53;93450.03;2048805;70;20174;-71
2022/06/10 06:29:31;;;;;;;3.60;3.30;;;;;;;13.83;74.73;93447.84;2048728;70;20609;-71
2022/06/10 06:31:57;;;;;;;4.78;2.63;;;;;;;13.88;74.88;93447.50;2048812;69;20276;-71
2022/06/10 06:34:24;;;;;;;3.83;3.00;;;;;;;13.90;74.45;93453.28;2048742;70;20616;-71
2022/06/10 06:36:52;;;;;;;5.82;3.55;;;;;;;13.92;74.87;93450.53;2048755;70;20231;-72
2022/06/10 06:39:21;;;;;;;5.55;3.00;;;;;;;13.83;74.19;93459.16;2048817;69;20150;-72
2022/06/10 06:41:47;;;;;;;5.45;3.05;;;;;;;14.23;73.41;93452.38;2048778;70;20146;-72
2022/06/10 06:44:14;;;;;;;4.53;3.30;;;;;;;14.21;73.24;93447.34;2048749;70;20146;-72
2022/06/10 06:46:41;;;;;;;5.50;4.25;;;;;;;14.40;71.75;93446.31;2061468;69;20234;-71
2022/06/10 06:49:14;;;;;;;7.05;3.60;;;;;;;14.43;71.60;93453.59;2048980;70;20159;-72
2022/06/10 06:51:40;;;;;;;4.18;2.92;;;;;;;14.65;71.42;93448.47;2048838;70;20684;-73
2022/06/10 06:54:09;;;;;;;5.45;2.83;;;;;;;14.86;67.70;93455.31;2048923;70;20135;-73
2022/06/10 06:56:35;;;;;;;4.72;3.05;;;;;;;14.91;68.53;93454.94;2048816;70;20174;-72
2022/06/10 06:59:01;;;;;;;4.13;2.80;;;;;;;15.07;69.45;93457.94;2048992;70;20212;-73
2022/06/10 07:01:27;;;;;;;5.38;2.40;;;;;;;15.21;67.21;93453.06;2048651;70;20150;-73
2022/06/10 07:03:53;;;;;;;3.53;2.42;;;;;;;15.20;68.91;93459.34;2048967;70;20154;-73
2022/06/10 07:06:18;;;;;;;2.90;1.90;;;;;;;14.95;67.07;93460.84;2048914;70;20577;-72
2022/06/10 07:08:47;;;;;;;4.35;2.03;;;;;;;14.89;67.70;93459.72;2048762;70;20151;-72
2022/06/10 07:11:12;;;;;;;5.95;2.53;;;;;;;15.13;69.25;93454.72;2048869;69;20139;-72
2022/06/10 07:13:38;;;;;;;3.55;2.50;;;;;;;15.27;65.95;93455.50;2048816;70;20615;-72
2022/06/10 07:16:04;;;;;;;3.45;2.40;;;;;;;15.35;67.34;93458.78;2048675;70;20572;-72
2022/06/10 07:18:31;;;;;;;3.28;2.42;;;;;;;15.65;66.67;93462.56;2048784;70;20183;-72
2022/06/10 07:20:58;;;;;;;6.43;2.50;;;;;;;15.44;67.01;93462.78;2048692;70;20166;-71
2022/06/10 07:23:24;;;;;;;8.45;2.60;;;;;;;14.97;69.16;93458.09;2048475;70;20240;-71
2022/06/10 07:25:49;;;;;;;4.07;2.60;;;;;;;15.00;68.97;93459.69;2048497;70;20624;-71
2022/06/10 07:28:15;;;;;;;5.85;2.80;;;;;;;15.12;68.80;93462.50;2061547;69;20141;-71
2022/06/10 07:30:42;;;;;;;4.38;2.50;;;;;;;15.27;68.20;93464.00;2048479;70;20160;-71
2022/06/10 07:33:08;;;;;;;3.15;2.60;;;;;;;15.32;68.34;93459.31;2061560;69;20141;-71
2022/06/10 07:35:35;;;;;;;4.00;2.70;;;;;;;14.90;69.07;93464.81;2048638;70;20159;-72
2022/06/10 07:38:01;;;;;;;3.65;2.40;;;;;;;15.50;67.66;93457.47;2048659;70;20142;-72
2022/06/10 07:43:19;;;;;;;7.28;2.53;;;;;;;15.73;67.14;93459.44;2048801;70;20570;-70
2022/06/10 07:45:45;;;;;;;6.00;2.60;;;;;;;15.32;67.65;93462.88;2048490;70;20181;-73
2022/06/10 07:48:12;;;;;;;3.20;2.30;;;;;;;15.59;66.59;93462.22;2049176;70;20208;-72
2022/06/10 07:50:42;;;;;;;3.25;2.60;;;;;;;15.88;66.87;93469.44;2049116;70;20181;-71
2022/06/10 07:53:09;;;;;;;4.57;2.55;;;;;;;15.55;67.48;93462.00;2049211;70;20174;-71
2022/06/10 07:55:34;;;;;;;2.85;2.20;;;;;;;15.55;67.64;93469.78;2049149;70;20179;-71
2022/06/10 07:58:00;;;;;;;4.07;2.78;;;;;;;15.71;66.27;93459.31;2049154;70;20143;-72
2022/06/10 08:00:26;;;;;;;4.57;3.10;;;;;;;15.80;68.10;93466.16;2049030;69;20142;-72
2022/06/10 08:02:52;;;;;;;4.18;3.45;;;;;;;15.44;67.49;93454.28;2049129;70;20139;-72
2022/06/10 08:05:19;;;;;;;4.57;3.10;;;;;;;16.07;66.45;93457.69;2049114;70;20161;-72
2022/06/10 08:07:46;;;;;;;4.68;3.13;;;;;;;16.36;65.33;93459.19;2049064;70;20207;-72
2022/06/10 08:10:24;;;;;;;4.13;3.00;;;;;;;16.14;65.85;93447.41;2049198;70;20241;-72
2022/06/10 08:12:50;;;;;;;4.60;3.20;;;;;;;16.32;65.60;93453.28;2049079;70;20166;-72
2022/06/10 08:15:17;;;;;;;3.70;2.80;;;;;;;16.12;66.40;93459.38;2048919;70;20148;-72
2022/06/10 08:17:46;;;;;;;5.35;2.88;;;;;;;16.26;65.81;93454.44;2049087;70;20151;-72
2022/06/10 08:23:14;;;;;;;5.68;2.80;;;;;;;16.48;66.26;93449.16;2049020;70;20146;-72
2022/06/10 08:25:41;;;;;;;8.00;2.92;;;;;;;15.84;67.49;93447.25;2049071;70;20191;-70
2022/06/10 08:28:08;;;;;;;2.67;2.40;;;;;;;15.68;68.71;93449.25;2049054;70;20143;-71
2022/06/10 08:30:34;;;;;;;2.70;2.30;;;;;;;16.43;65.12;93444.63;2048920;70;20165;-71
2022/06/10 08:33:03;;;;;;;4.10;2.67;;;;;;;16.63;63.57;93444.19;2049035;70;20224;-72
2022/06/10 08:35:32;;;;;;;5.53;2.60;;;;;;;16.52;63.66;93443.69;2048987;70;20235;-72
2022/06/10 08:38:00;;;;;;;3.80;2.40;;;;;;;17.23;61.94;93437.94;2049052;70;20590;-71
2022/06/10 08:41:00;;;;;;;4.03;2.67;;;;;;;17.00;62.29;93441.09;2048942;70;20158;-71
2022/06/10 08:43:55;;;;;;;2.47;2.08;;;;;;;17.50;60.96;93439.16;2048920;70;20159;-71
2022/06/10 08:47:07;;;;;;;5.47;2.15;;;;;;;17.54;60.16;93436.53;2048930;70;20152;-72
2022/06/10 08:50:01;;;;;;;5.85;2.00;;;;;;;17.85;60.36;93432.25;2031957;70;20632;-71
2022/06/10 08:52:52;;;;;;;3.67;1.95;;;;;;;17.80;59.13;93439.16;2048703;70;20135;-71
2022/06/10 08:55:27;;;;;;;4.68;1.58;;;;;;;17.69;57.44;93444.34;2048999;69;20166;-71
2022/06/10 08:57:56;;;;;;;3.83;1.70;;;;;;;17.84;57.07;93440.06;2048873;70;20604;-71
2022/06/10 09:00:26;;;;;;;2.50;1.70;;;;;;;17.86;57.95;93434.47;2061800;69;20532;-71
2022/06/10 09:03:04;;;;;;;3.47;1.80;;;;;;;17.89;58.50;93441.72;2048984;70;20524;-71
2022/06/10 09:05:52;;;;;;;3.22;1.70;;;;;;;18.10;58.25;93442.63;2049001;70;20139;-71
2022/06/10 09:08:24;;;;;;;6.78;3.70;;;;;;;17.86;58.07;93443.00;2049009;70;20142;-71
2022/06/10 09:11:13;;;;;;;5.30;2.25;;;;;;;17.66;58.85;93445.63;2049024;70;20234;-71
2022/06/10 09:14:00;;;;;;;3.88;1.80;;;;;;;18.12;58.15;93451.28;2048929;70;20226;-71
2022/06/10 09:16:36;;;;;;;2.80;1.52;;;;;;;18.21;57.93;93444.56;2048892;69;20221;-71
2022/06/10 09:19:04;;;;;;;2.58;1.60;;;;;;;18.29;57.25;93442.81;2049149;70;20528;-71
2022/06/10 09:21:46;;;;;;;3.63;1.60;;;;;;;17.42;57.57;93448.09;2049174;70;20155;-70
2022/06/10 09:24:24;;;;;;;4.10;1.80;;;;;;;17.72;57.73;93457.28;2049020;70;20208;-71
2022/06/10 09:27:09;;;;;;;2.00;1.33;;;;;;;17.69;55.47;93452.91;2049033;70;20223;-71
2022/06/10 09:29:38;;;;;;;4.80;1.20;;;;;;;17.95;56.02;93446.97;2061883;69;20606;-71
2022/06/10 09:32:13;;;;;;;1.98;1.20;;;;;;;18.07;55.57;93443.94;2049102;69;20600;-71
2022/06/10 09:35:20;;;;;;;2.03;1.00;;;;;;;18.24;54.94;93446.13;2049028;70;20153;-71
2022/06/10 09:38:12;;;;;;;1.77;1.30;;;;;;;18.00;54.50;93446.50;2051006;70;20242;-71
2022/06/10 09:40:43;;;;;;;2.58;1.30;;;;;;;18.36;54.65;93443.81;2048485;70;20770;-71
2022/06/10 09:43:44;;;;;;;10.48;1.52;;;;;;;18.65;53.47;93445.78;2051199;70;20174;-71
2022/06/10 09:46:15;;;;;;;3.50;1.30;;;;;;;18.85;53.60;93443.06;2050927;70;20604;-72
2022/06/10 09:49:12;;;;;;;4.68;1.30;;;;;;;19.08;52.48;93444.00;2051147;70;20697;-71
2022/06/10 09:51:59;;;;;;;1.52;1.10;;;;;;;18.67;52.74;93440.16;2051028;70;20190;-71
2022/06/10 09:54:31;;;;;;;2.10;0.90;;;;;;;19.00;52.24;93447.25;2051028;70;20150;-71
2022/06/10 09:57:02;;;;;;;3.17;1.00;;;;;;;18.40;49.64;93443.97;2050983;70;20150;-71
2022/06/10 09:59:49;;;;;;;1.60;1.00;;;;;;;18.68;51.49;93438.03;2051016;70;20249;-70
2022/06/10 10:02:41;;;;;;;1.60;0.95;;;;;;;18.91;50.71;93437.59;2051086;70;20172;-70
2022/06/10 10:05:43;;;;;;;1.52;1.00;;;;;;;18.85;51.78;93433.78;2050925;70;20147;-70
2022/06/10 10:08:09;;;;;;;2.53;1.15;;;;;;;19.56;51.00;93436.63;2050057;70;20166;-71
2022/06/10 10:10:49;;;;;;;1.60;1.00;;;;;;;19.80;49.84;93434.03;2048662;70;20336;-71
2022/06/10 10:13:33;;;;;;;1.70;0.90;;;;;;;19.88;49.67;93428.59;2048854;70;20565;-72
2022/06/10 10:16:23;;;;;;;1.50;1.08;;;;;;;19.66;50.53;93422.06;2048560;70;20253;-72
2022/06/10 10:19:08;;;;;;;1.73;1.15;;;;;;;20.11;49.06;93426.59;2048787;70;20158;-71
2022/06/10 10:21:46;;;;;;;2.78;1.13;;;;;;;19.92;48.54;93431.63;2048846;70;20150;-71
2022/06/10 10:24:17;;;;;;;1.58;1.15;;;;;;;20.40;47.45;93429.09;2048791;70;20374;-71
2022/06/10 10:26:45;;;;;;;2.58;1.02;;;;;;;20.83;47.35;93415.56;2048822;70;20138;-72
2022/06/10 10:29:22;;;;;;;3.60;1.13;;;;;;;20.12;47.42;93414.50;2048805;70;20154;-72
2022/06/10 10:32:01;;;;;;;3.03;1.60;;;;;;;19.91;47.73;93406.56;2048753;70;20135;-71
2022/06/10 10:34:34;;;;;;;2.80;1.25;;;;;;;20.12;46.90;93408.06;2048802;69;20150;-71
2022/06/10 10:37:03;;;;;;;2.03;1.10;;;;;;;19.79;48.44;93412.53;2048824;70;20150;-71
2022/06/10 10:39:35;;;;;;;1.25;1.00;;;;;;;20.00;48.20;93409.06;2048759;70;20155;-69
2022/06/10 10:42:13;;;;;;;1.50;0.98;;;;;;;19.92;47.87;93408.75;2048792;70;20254;-70
2022/06/10 10:44:45;;;;;;;3.13;1.38;;;;;;;20.08;46.38;93407.91;2048784;70;20142;-71
2022/06/10 10:47:10;;;;;;;2.25;1.23;;;;;;;20.22;46.69;93409.16;2048869;70;20151;-71
2022/06/10 10:49:46;;;;;;;2.53;1.05;;;;;;;20.20;46.05;93406.22;2048737;70;20153;-71
2022/06/10 10:52:23;;;;;;;1.48;1.17;;;;;;;20.55;45.96;93413.19;2048868;70;20150;-73
2022/06/10 10:54:52;;;;;;;2.30;1.08;;;;;;;20.66;45.98;93400.69;2048816;70;20146;-71
2022/06/10 10:57:26;;;;;;;1.75;1.00;;;;;;;22.57;43.50;93390.84;2048852;70;20158;-72
2022/06/10 11:00:11;;;;;;;1.10;1.00;;;;;;;21.25;44.35;93388.34;2048689;70;20139;-72
2022/06/10 11:02:41;;;;;;;1.40;1.20;;;;;;;22.42;41.16;93397.59;2048657;69;20223;-71
2022/06/10 11:05:19;;;;;;;2.22;1.05;;;;;;;29.78;33.01;93401.44;2047918;70;20286;-71
2022/06/10 11:07:46;;;;;;;1.48;1.05;;;;;;;26.84;33.16;93391.84;2048020;70;20154;-71
2022/06/10 11:10:24;;;;;;;2.88;1.08;;;;;;;23.69;36.02;93395.84;2048479;70;20182;-70
2022/06/10 11:12:50;;;;;;;1.70;1.10;;;;;;;23.66;35.16;93391.44;2048242;70;20233;-70
2022/06/10 11:15:30;;;;;;;3.38;1.20;;;;;;;24.27;36.50;93381.97;2044981;70;20153;-70
2022/06/10 11:17:59;;;;;;;1.95;1.00;;;;;;;23.75;34.51;93384.47;2048518;70;20154;-70
2022/06/10 11:20:36;;;;;;;1.73;1.10;;;;;;;28.84;30.57;93383.88;2044718;70;20608;-71
2022/06/10 11:23:17;;;;;;;1.20;0.90;;;;;;;26.04;32.78;93392.28;2048283;69;20174;-71
2022/06/10 11:25:45;;;;;;;1.43;0.80;;;;;;;25.14;34.40;93387.25;2044978;70;20135;-71
2022/06/10 11:28:21;;;;;;;2.90;1.00;;;;;;;23.84;34.76;93389.72;2048278;70;20283;-72
2022/06/10 11:30:49;;;;;;;1.08;0.90;;;;;;;24.50;36.10;93380.31;2048125;70;20187;-72
2022/06/10 11:33:23;;;;;;;3.72;0.90;;;;;;;25.20;36.69;93381.59;2048223;70;20189;-71
2022/06/10 11:36:01;;;;;;;1.13;1.00;;;;;;;24.54;34.61;93383.25;2048193;70;20185;-71
2022/06/10 11:38:29;;;;;;;3.20;1.08;;;;;;;23.78;37.15;93380.97;2048240;70;20237;-71
2022/06/10 11:41:18;;;;;;;1.80;1.10;;;;;;;22.47;38.07;93374.06;2048045;70;20189;-72
2022/06/10 11:43:49;;;;;;;3.60;1.00;;;;;;;22.92;38.04;93363.06;2045953;70;20212;-72
2022/06/10 11:46:36;;;;;;;1.53;1.00;;;;;;;23.77;36.67;93367.97;2048260;70;20173;-72
2022/06/10 11:49:20;;;;;;;1.98;0.98;;;;;;;23.31;37.85;93371.22;2048191;70;20146;-72
2022/06/10 11:52:04;;;;;;;2.05;1.30;;;;;;;23.00;40.41;93366.88;2048238;70;20159;-71
2022/06/10 11:54:39;;;;;;;1.63;1.23;;;;;;;23.15;40.35;93367.22;2048113;70;20185;-72
2022/06/10 12:00:23;;;;;;;1.35;1.25;;;;;;;22.27;42.24;93368.53;2048265;70;20154;-72
2022/06/10 12:02:52;;;;;;;1.45;1.10;;;;;;;21.87;43.30;93373.78;2047981;70;20221;-71
2022/06/10 12:05:43;;;;;;;4.10;1.17;;;;;;;21.66;43.90;93381.03;2048349;70;20135;-71
2022/06/10 12:08:41;;;;;;;2.97;1.20;;;;;;;21.60;44.57;93383.00;2048074;70;20240;-72
2022/06/10 12:11:10;;;;;;;5.80;1.30;;;;;;;21.67;44.05;93381.78;2039456;70;20603;-72
2022/06/10 12:13:44;;;;;;;2.58;1.42;;;;;;;21.54;44.59;93375.69;2048194;70;20241;-71